sensor_id;sensor_type;location;lat;lon;timestamp;temperature;humidity
4985;DHT22;2509;49.902;8.600;2023-08-31T00:01:07;14.50;99.90
4985;DHT22;2509;49.902;8.600;2023-08-31T00:04:09;14.40;99.90
4985;DHT22;2509;49.902;8.600;2023-08-31T00:07:16;14.40;99.90
4985;DHT22;2509;49.902;8.600;2023-08-31T00:10:18;14.30;99.90
4985;DHT22;2509;49.902;8.600;2023-08-31T00:13:20;14.30;99.90
4985;DHT22;2509;49.902;8.600;2023-08-31T00:16:24;14.20;99.90
4985;DHT22;2509;49.902;8.600;2023-08-31T00:19:27;14.20;99.90
4985;DHT22;2509;49.902;8.600;2023-08-31T00:22:30;14.30;99.90
4985;DHT22;2509;49.902;8.600;2023-08-31T00:25:31;14.30;99.90
4985;DHT22;2509;49.902;8.600;2023-08-31T00:28:33;14.30;99.90
4985;DHT22;2509;49.902;8.600;2023-08-31T00:31:35;14.30;99.90
4985;DHT22;2509;49.902;8.600;2023-08-31T00:34:37;14.30;99.90
4985;DHT22;2509;49.902;8.600;2023-08-31T00:37:40;14.30;99.90
4985;DHT22;2509;49.902;8.600;2023-08-31T00:40:42;14.30;99.90
4985;DHT22;2509;49.902;8.600;2023-08-31T00:43:45;14.30;99.90
4985;DHT22;2509;49.902;8.600;2023-08-31T00:46:47;14.30;99.90
4985;DHT22;2509;49.902;8.600;2023-08-31T00:49:50;14.30;99.90
4985;DHT22;2509;49.902;8.600;2023-08-31T00:52:53;14.30;99.90
4985;DHT22;2509;49.902;8.600;2023-08-31T00:55:54;14.30;99.90
4985;DHT22;2509;49.902;8.600;2023-08-31T00:58:57;14.30;99.90
4985;DHT22;2509;49.902;8.600;2023-08-31T01:02:04;14.20;99.90
4985;DHT22;2509;49.902;8.600;2023-08-31T01:05:15;14.20;99.90
4985;DHT22;2509;49.902;8.600;2023-08-31T01:08:27;14.20;99.90
4985;DHT22;2509;49.902;8.600;2023-08-31T01:11:37;14.20;99.90
4985;DHT22;2509;49.902;8.600;2023-08-31T01:14:44;14.10;99.90
4985;DHT22;2509;49.902;8.600;2023-08-31T01:17:52;14.10;99.90
4985;DHT22;2509;49.902;8.600;2023-08-31T01:21:02;14.10;99.90
4985;DHT22;2509;49.902;8.600;2023-08-31T01:24:09;14.10;99.90
4985;DHT22;2509;49.902;8.600;2023-08-31T01:27:12;14.00;99.90
4985;DHT22;2509;49.902;8.600;2023-08-31T01:30:14;14.00;99.90
4985;DHT22;2509;49.902;8.600;2023-08-31T01:33:16;14.00;99.90
4985;DHT22;2509;49.902;8.600;2023-08-31T01:36:20;14.00;99.90
4985;DHT22;2509;49.902;8.600;2023-08-31T01:39:32;13.90;99.90
4985;DHT22;2509;49.902;8.600;2023-08-31T01:42:35;13.90;99.90
4985;DHT22;2509;49.902;8.600;2023-08-31T01:45:38;13.90;99.90
4985;DHT22;2509;49.902;8.600;2023-08-31T01:48:40;13.80;99.90
4985;DHT22;2509;49.902;8.600;2023-08-31T01:51:42;13.80;99.90
4985;DHT22;2509;49.902;8.600;2023-08-31T01:54:45;13.70;99.90
4985;DHT22;2509;49.902;8.600;2023-08-31T01:57:47;13.70;99.90
4985;DHT22;2509;49.902;8.600;2023-08-31T02:00:49;13.70;99.90
4985;DHT22;2509;49.902;8.600;2023-08-31T02:03:51;13.70;99.90
4985;DHT22;2509;49.902;8.600;2023-08-31T02:06:52;13.70;99.90
4985;DHT22;2509;49.902;8.600;2023-08-31T02:09:55;13.70;99.90
4985;DHT22;2509;49.902;8.600;2023-08-31T02:12:57;13.70;99.90
4985;DHT22;2509;49.902;8.600;2023-08-31T02:15:59;13.70;99.90
4985;DHT22;2509;49.902;8.600;2023-08-31T02:19:01;13.70;99.90
4985;DHT22;2509;49.902;8.600;2023-08-31T02:22:02;13.70;99.90
4985;DHT22;2509;49.902;8.600;2023-08-31T02:25:06;13.70;99.90
4985;DHT22;2509;49.902;8.600;2023-08-31T02:28:08;13.60;99.90
4985;DHT22;2509;49.902;8.600;2023-08-31T02:31:10;13.70;99.90
4985;DHT22;2509;49.902;8.600;2023-08-31T02:34:12;13.60;99.90
4985;DHT22;2509;49.902;8.600;2023-08-31T02:37:14;13.70;99.90
4985;DHT22;2509;49.902;8.600;2023-08-31T02:40:17;13.60;99.90
4985;DHT22;2509;49.902;8.600;2023-08-31T02:43:21;13.70;99.90
4985;DHT22;2509;49.902;8.600;2023-08-31T02:46:23;13.70;99.90
4985;DHT22;2509;49.902;8.600;2023-08-31T02:49:24;13.70;99.90
4985;DHT22;2509;49.902;8.600;2023-08-31T02:52:26;13.70;99.90
4985;DHT22;2509;49.902;8.600;2023-08-31T02:55:32;13.70;99.90
4985;DHT22;2509;49.902;8.600;2023-08-31T02:58:34;13.70;99.90
4985;DHT22;2509;49.902;8.600;2023-08-31T03:01:35;13.70;99.90
4985;DHT22;2509;49.902;8.600;2023-08-31T03:04:37;13.70;99.90
4985;DHT22;2509;49.902;8.600;2023-08-31T03:07:40;13.70;99.90
4985;DHT22;2509;49.902;8.600;2023-08-31T03:10:43;13.80;99.90
4985;DHT22;2509;49.902;8.600;2023-08-31T03:13:44;13.80;99.90
4985;DHT22;2509;49.902;8.600;2023-08-31T03:16:46;13.70;99.90
4985;DHT22;2509;49.902;8.600;2023-08-31T03:19:49;13.80;99.90
4985;DHT22;2509;49.902;8.600;2023-08-31T03:22:51;13.80;99.90
4985;DHT22;2509;49.902;8.600;2023-08-31T03:25:54;13.80;99.90
4985;DHT22;2509;49.902;8.600;2023-08-31T03:28:55;13.80;99.90
4985;DHT22;2509;49.902;8.600;2023-08-31T03:31:57;13.80;99.90
4985;DHT22;2509;49.902;8.600;2023-08-31T03:35:01;13.80;99.90
4985;DHT22;2509;49.902;8.600;2023-08-31T03:38:03;13.70;99.90
4985;DHT22;2509;49.902;8.600;2023-08-31T03:41:06;13.70;99.90
4985;DHT22;2509;49.902;8.600;2023-08-31T03:44:08;13.70;99.90
4985;DHT22;2509;49.902;8.600;2023-08-31T03:47:09;13.70;99.90
4985;DHT22;2509;49.902;8.600;2023-08-31T03:50:11;13.70;99.90
4985;DHT22;2509;49.902;8.600;2023-08-31T03:53:13;13.60;99.90
4985;DHT22;2509;49.902;8.600;2023-08-31T03:56:16;13.60;99.90
4985;DHT22;2509;49.902;8.600;2023-08-31T03:59:18;13.60;99.90
4985;DHT22;2509;49.902;8.600;2023-08-31T04:02:20;13.60;99.90
4985;DHT22;2509;49.902;8.600;2023-08-31T04:05:21;13.60;99.90
4985;DHT22;2509;49.902;8.600;2023-08-31T04:08:23;13.60;99.90
4985;DHT22;2509;49.902;8.600;2023-08-31T04:11:26;13.50;99.90
4985;DHT22;2509;49.902;8.600;2023-08-31T04:14:28;13.50;99.90
4985;DHT22;2509;49.902;8.600;2023-08-31T04:17:30;13.50;99.90
4985;DHT22;2509;49.902;8.600;2023-08-31T04:20:33;13.40;99.90
4985;DHT22;2509;49.902;8.600;2023-08-31T04:23:35;13.40;99.90
4985;DHT22;2509;49.902;8.600;2023-08-31T04:26:38;13.40;99.90
4985;DHT22;2509;49.902;8.600;2023-08-31T04:29:39;13.30;99.90
4985;DHT22;2509;49.902;8.600;2023-08-31T04:32:41;13.20;99.90
4985;DHT22;2509;49.902;8.600;2023-08-31T04:35:44;13.20;99.90
4985;DHT22;2509;49.902;8.600;2023-08-31T04:38:48;13.10;99.90
4985;DHT22;2509;49.902;8.600;2023-08-31T04:41:51;13.10;99.90
4985;DHT22;2509;49.902;8.600;2023-08-31T04:44:52;13.00;99.90
4985;DHT22;2509;49.902;8.600;2023-08-31T04:47:54;13.00;99.90
4985;DHT22;2509;49.902;8.600;2023-08-31T04:50:56;13.00;99.90
4985;DHT22;2509;49.902;8.600;2023-08-31T04:53:58;13.00;99.90
4985;DHT22;2509;49.902;8.600;2023-08-31T04:57:02;12.90;99.90
4985;DHT22;2509;49.902;8.600;2023-08-31T05:00:05;12.90;99.90
4985;DHT22;2509;49.902;8.600;2023-08-31T05:03:09;13.00;99.90
4985;DHT22;2509;49.902;8.600;2023-08-31T05:06:11;12.90;99.90
4985;DHT22;2509;49.902;8.600;2023-08-31T05:09:13;12.90;99.90
4985;DHT22;2509;49.902;8.600;2023-08-31T05:12:16;12.90;99.90
4985;DHT22;2509;49.902;8.600;2023-08-31T05:15:18;12.90;99.90
4985;DHT22;2509;49.902;8.600;2023-08-31T05:18:20;12.90;99.90
4985;DHT22;2509;49.902;8.600;2023-08-31T05:21:21;12.80;99.90
4985;DHT22;2509;49.902;8.600;2023-08-31T05:24:23;12.80;99.90
4985;DHT22;2509;49.902;8.600;2023-08-31T05:27:26;12.80;99.90
4985;DHT22;2509;49.902;8.600;2023-08-31T05:30:28;12.90;99.90
4985;DHT22;2509;49.902;8.600;2023-08-31T05:33:30;12.90;99.90
4985;DHT22;2509;49.902;8.600;2023-08-31T05:36:34;12.90;99.90
4985;DHT22;2509;49.902;8.600;2023-08-31T05:39:36;12.80;99.90
4985;DHT22;2509;49.902;8.600;2023-08-31T05:42:39;12.80;99.90
4985;DHT22;2509;49.902;8.600;2023-08-31T05:45:41;12.90;99.90
4985;DHT22;2509;49.902;8.600;2023-08-31T05:48:43;12.90;99.90
4985;DHT22;2509;49.902;8.600;2023-08-31T05:51:45;12.90;99.90
4985;DHT22;2509;49.902;8.600;2023-08-31T05:54:46;12.90;99.90
4985;DHT22;2509;49.902;8.600;2023-08-31T05:57:50;12.90;99.90
4985;DHT22;2509;49.902;8.600;2023-08-31T06:00:51;12.90;99.90
4985;DHT22;2509;49.902;8.600;2023-08-31T06:03:53;13.00;99.90
4985;DHT22;2509;49.902;8.600;2023-08-31T06:06:55;13.00;99.90
4985;DHT22;2509;49.902;8.600;2023-08-31T06:09:57;13.00;99.90
4985;DHT22;2509;49.902;8.600;2023-08-31T06:13:00;13.10;99.90
4985;DHT22;2509;49.902;8.600;2023-08-31T06:16:02;13.20;99.90
4985;DHT22;2509;49.902;8.600;2023-08-31T06:19:04;13.40;99.90
4985;DHT22;2509;49.902;8.600;2023-08-31T06:22:06;13.50;99.90
4985;DHT22;2509;49.902;8.600;2023-08-31T06:25:08;13.60;99.90
4985;DHT22;2509;49.902;8.600;2023-08-31T06:28:13;13.70;99.90
4985;DHT22;2509;49.902;8.600;2023-08-31T06:31:14;13.70;99.90
4985;DHT22;2509;49.902;8.600;2023-08-31T06:34:16;13.80;99.90
4985;DHT22;2509;49.902;8.600;2023-08-31T06:37:18;13.90;99.90
4985;DHT22;2509;49.902;8.600;2023-08-31T06:40:21;13.90;99.90
4985;DHT22;2509;49.902;8.600;2023-08-31T06:43:24;14.00;99.90
4985;DHT22;2509;49.902;8.600;2023-08-31T06:46:27;14.00;99.90
4985;DHT22;2509;49.902;8.600;2023-08-31T06:49:29;14.00;99.90
4985;DHT22;2509;49.902;8.600;2023-08-31T06:52:33;14.10;99.90
4985;DHT22;2509;49.902;8.600;2023-08-31T06:55:35;14.30;99.90
4985;DHT22;2509;49.902;8.600;2023-08-31T06:58:38;14.30;99.90
4985;DHT22;2509;49.902;8.600;2023-08-31T07:01:40;14.40;99.90
4985;DHT22;2509;49.902;8.600;2023-08-31T07:04:42;14.50;99.90
4985;DHT22;2509;49.902;8.600;2023-08-31T07:07:44;14.60;99.90
4985;DHT22;2509;49.902;8.600;2023-08-31T07:10:46;14.80;99.90
4985;DHT22;2509;49.902;8.600;2023-08-31T07:13:50;15.00;99.90
4985;DHT22;2509;49.902;8.600;2023-08-31T07:16:52;15.20;99.90
4985;DHT22;2509;49.902;8.600;2023-08-31T07:19:53;15.30;99.90
4985;DHT22;2509;49.902;8.600;2023-08-31T07:22:55;15.10;99.90
4985;DHT22;2509;49.902;8.600;2023-08-31T07:25:57;15.00;99.90
4985;DHT22;2509;49.902;8.600;2023-08-31T07:29:02;14.90;99.90
4985;DHT22;2509;49.902;8.600;2023-08-31T07:32:05;14.90;99.90
4985;DHT22;2509;49.902;8.600;2023-08-31T07:35:07;14.90;99.90
4985;DHT22;2509;49.902;8.600;2023-08-31T07:38:09;14.90;99.90
4985;DHT22;2509;49.902;8.600;2023-08-31T07:41:11;14.90;99.90
4985;DHT22;2509;49.902;8.600;2023-08-31T07:44:14;15.10;99.90
4985;DHT22;2509;49.902;8.600;2023-08-31T07:47:16;15.30;99.90
4985;DHT22;2509;49.902;8.600;2023-08-31T07:50:17;15.50;99.90
4985;DHT22;2509;49.902;8.600;2023-08-31T07:53:19;15.60;99.90
4985;DHT22;2509;49.902;8.600;2023-08-31T07:56:22;15.60;99.90
4985;DHT22;2509;49.902;8.600;2023-08-31T07:59:25;15.70;99.90
4985;DHT22;2509;49.902;8.600;2023-08-31T08:02:27;16.00;99.90
4985;DHT22;2509;49.902;8.600;2023-08-31T08:05:29;16.20;99.90
4985;DHT22;2509;49.902;8.600;2023-08-31T08:08:30;16.30;99.90
4985;DHT22;2509;49.902;8.600;2023-08-31T08:11:34;16.30;99.90
4985;DHT22;2509;49.902;8.600;2023-08-31T08:14:37;16.30;99.90
4985;DHT22;2509;49.902;8.600;2023-08-31T08:17:39;16.30;99.90
4985;DHT22;2509;49.902;8.600;2023-08-31T08:20:41;16.10;99.90
4985;DHT22;2509;49.902;8.600;2023-08-31T08:23:42;15.90;99.90
4985;DHT22;2509;49.902;8.600;2023-08-31T08:26:44;15.90;99.90
4985;DHT22;2509;49.902;8.600;2023-08-31T08:29:47;15.90;99.90
4985;DHT22;2509;49.902;8.600;2023-08-31T08:32:49;15.80;99.90
4985;DHT22;2509;49.902;8.600;2023-08-31T08:35:51;15.70;99.90
4985;DHT22;2509;49.902;8.600;2023-08-31T08:38:52;15.70;99.90
4985;DHT22;2509;49.902;8.600;2023-08-31T08:41:54;15.80;99.90
4985;DHT22;2509;49.902;8.600;2023-08-31T08:45:01;15.90;99.90
4985;DHT22;2509;49.902;8.600;2023-08-31T08:48:05;16.00;99.90
4985;DHT22;2509;49.902;8.600;2023-08-31T08:51:08;16.10;99.90
4985;DHT22;2509;49.902;8.600;2023-08-31T08:54:09;16.20;99.90
4985;DHT22;2509;49.902;8.600;2023-08-31T08:57:11;16.50;99.90
4985;DHT22;2509;49.902;8.600;2023-08-31T09:00:16;16.50;99.90
4985;DHT22;2509;49.902;8.600;2023-08-31T09:03:17;16.60;99.90
4985;DHT22;2509;49.902;8.600;2023-08-31T09:06:19;16.60;99.90
4985;DHT22;2509;49.902;8.600;2023-08-31T09:09:22;16.60;99.90
4985;DHT22;2509;49.902;8.600;2023-08-31T09:12:24;16.80;99.90
4985;DHT22;2509;49.902;8.600;2023-08-31T09:15:36;17.10;99.90
4985;DHT22;2509;49.902;8.600;2023-08-31T09:18:38;17.20;99.90
4985;DHT22;2509;49.902;8.600;2023-08-31T09:21:40;17.20;99.90
4985;DHT22;2509;49.902;8.600;2023-08-31T09:24:42;17.20;99.90
4985;DHT22;2509;49.902;8.600;2023-08-31T09:27:44;17.20;99.90
4985;DHT22;2509;49.902;8.600;2023-08-31T09:30:50;17.30;99.90
4985;DHT22;2509;49.902;8.600;2023-08-31T09:33:53;17.50;99.90
4985;DHT22;2509;49.902;8.600;2023-08-31T09:36:55;17.60;99.90
4985;DHT22;2509;49.902;8.600;2023-08-31T09:40:02;17.80;99.90
4985;DHT22;2509;49.902;8.600;2023-08-31T09:43:04;17.60;99.90
4985;DHT22;2509;49.902;8.600;2023-08-31T09:46:08;18.00;99.90
4985;DHT22;2509;49.902;8.600;2023-08-31T09:49:12;18.40;99.90
4985;DHT22;2509;49.902;8.600;2023-08-31T09:52:14;18.70;99.90
4985;DHT22;2509;49.902;8.600;2023-08-31T09:55:18;19.10;99.90
4985;DHT22;2509;49.902;8.600;2023-08-31T09:58:21;19.30;99.90
4985;DHT22;2509;49.902;8.600;2023-08-31T10:01:28;19.60;99.90
4985;DHT22;2509;49.902;8.600;2023-08-31T10:04:30;19.90;99.90
4985;DHT22;2509;49.902;8.600;2023-08-31T10:07:33;19.90;99.90
4985;DHT22;2509;49.902;8.600;2023-08-31T10:10:37;19.80;99.90
4985;DHT22;2509;49.902;8.600;2023-08-31T10:13:41;20.10;99.90
4985;DHT22;2509;49.902;8.600;2023-08-31T10:16:45;20.60;99.90
4985;DHT22;2509;49.902;8.600;2023-08-31T10:19:47;21.00;99.90
4985;DHT22;2509;49.902;8.600;2023-08-31T10:22:49;21.40;99.90
4985;DHT22;2509;49.902;8.600;2023-08-31T10:26:01;21.50;99.90
4985;DHT22;2509;49.902;8.600;2023-08-31T10:29:04;21.70;99.90
4985;DHT22;2509;49.902;8.600;2023-08-31T10:32:07;21.70;99.90
4985;DHT22;2509;49.902;8.600;2023-08-31T10:35:09;21.70;99.90
4985;DHT22;2509;49.902;8.600;2023-08-31T10:38:15;21.90;99.90
4985;DHT22;2509;49.902;8.600;2023-08-31T10:41:21;21.90;99.90
4985;DHT22;2509;49.902;8.600;2023-08-31T10:44:31;21.70;99.90
4985;DHT22;2509;49.902;8.600;2023-08-31T10:47:40;21.50;99.90
4985;DHT22;2509;49.902;8.600;2023-08-31T10:50:47;21.50;99.90
4985;DHT22;2509;49.902;8.600;2023-08-31T10:54:23;21.40;99.90
4985;DHT22;2509;49.902;8.600;2023-08-31T10:57:35;21.40;99.90
4985;DHT22;2509;49.902;8.600;2023-08-31T11:00:47;21.10;99.90
4985;DHT22;2509;49.902;8.600;2023-08-31T11:04:24;21.00;99.90
4985;DHT22;2509;49.902;8.600;2023-08-31T11:07:43;20.90;99.90
4985;DHT22;2509;49.902;8.600;2023-08-31T11:10:48;20.70;99.90
4985;DHT22;2509;49.902;8.600;2023-08-31T11:14:02;20.70;99.90
4985;DHT22;2509;49.902;8.600;2023-08-31T11:17:04;20.80;99.90
4985;DHT22;2509;49.902;8.600;2023-08-31T11:20:09;20.90;99.90
4985;DHT22;2509;49.902;8.600;2023-08-31T11:23:11;21.00;99.90
4985;DHT22;2509;49.902;8.600;2023-08-31T11:26:13;21.30;99.90
4985;DHT22;2509;49.902;8.600;2023-08-31T11:29:15;21.50;99.90
4985;DHT22;2509;49.902;8.600;2023-08-31T11:32:17;21.70;99.90
4985;DHT22;2509;49.902;8.600;2023-08-31T11:35:22;21.80;99.90
4985;DHT22;2509;49.902;8.600;2023-08-31T11:38:24;22.20;99.90
4985;DHT22;2509;49.902;8.600;2023-08-31T11:41:30;23.20;99.90
4985;DHT22;2509;49.902;8.600;2023-08-31T11:44:33;24.00;97.60
4985;DHT22;2509;49.902;8.600;2023-08-31T11:47:35;23.20;97.80
4985;DHT22;2509;49.902;8.600;2023-08-31T11:50:39;23.90;99.90
4985;DHT22;2509;49.902;8.600;2023-08-31T11:53:42;24.90;96.00
4985;DHT22;2509;49.902;8.600;2023-08-31T11:56:45;25.30;93.50
4985;DHT22;2509;49.902;8.600;2023-08-31T11:59:50;25.50;92.10
4985;DHT22;2509;49.902;8.600;2023-08-31T12:02:59;24.90;92.30
4985;DHT22;2509;49.902;8.600;2023-08-31T12:06:03;24.10;94.50
4985;DHT22;2509;49.902;8.600;2023-08-31T12:09:07;24.50;93.40
4985;DHT22;2509;49.902;8.600;2023-08-31T12:12:09;24.40;92.20
4985;DHT22;2509;49.902;8.600;2023-08-31T12:15:13;24.90;93.80
4985;DHT22;2509;49.902;8.600;2023-08-31T12:18:14;25.80;92.20
4985;DHT22;2509;49.902;8.600;2023-08-31T12:21:21;26.60;88.90
4985;DHT22;2509;49.902;8.600;2023-08-31T12:24:23;26.80;89.10
4985;DHT22;2509;49.902;8.600;2023-08-31T12:27:26;26.50;88.30
4985;DHT22;2509;49.902;8.600;2023-08-31T12:30:28;26.30;87.70
4985;DHT22;2509;49.902;8.600;2023-08-31T12:33:30;26.40;86.20
4985;DHT22;2509;49.902;8.600;2023-08-31T12:36:33;26.90;85.20
4985;DHT22;2509;49.902;8.600;2023-08-31T12:39:37;27.20;86.70
4985;DHT22;2509;49.902;8.600;2023-08-31T12:42:39;27.20;86.00
4985;DHT22;2509;49.902;8.600;2023-08-31T12:45:40;27.20;85.10
4985;DHT22;2509;49.902;8.600;2023-08-31T12:48:42;27.20;84.90
4985;DHT22;2509;49.902;8.600;2023-08-31T12:51:45;25.70;86.70
4985;DHT22;2509;49.902;8.600;2023-08-31T12:54:47;24.60;89.40
4985;DHT22;2509;49.902;8.600;2023-08-31T12:57:49;24.00;88.10
4985;DHT22;2509;49.902;8.600;2023-08-31T13:00:51;24.00;88.70
4985;DHT22;2509;49.902;8.600;2023-08-31T13:03:53;24.40;88.80
4985;DHT22;2509;49.902;8.600;2023-08-31T13:06:56;24.70;87.50
4985;DHT22;2509;49.902;8.600;2023-08-31T13:10:00;24.60;88.40
4985;DHT22;2509;49.902;8.600;2023-08-31T13:13:02;24.20;89.80
4985;DHT22;2509;49.902;8.600;2023-08-31T13:16:04;24.50;89.30
4985;DHT22;2509;49.902;8.600;2023-08-31T13:19:06;25.50;88.60
4985;DHT22;2509;49.902;8.600;2023-08-31T13:22:09;26.20;86.70
4985;DHT22;2509;49.902;8.600;2023-08-31T13:25:15;26.80;86.30
4985;DHT22;2509;49.902;8.600;2023-08-31T13:28:17;26.80;86.30
4985;DHT22;2509;49.902;8.600;2023-08-31T13:31:19;27.00;85.10
4985;DHT22;2509;49.902;8.600;2023-08-31T13:34:21;27.20;86.80
4985;DHT22;2509;49.902;8.600;2023-08-31T13:37:24;27.90;85.10
4985;DHT22;2509;49.902;8.600;2023-08-31T13:40:25;27.90;83.00
4985;DHT22;2509;49.902;8.600;2023-08-31T13:43:27;27.60;81.70
4985;DHT22;2509;49.902;8.600;2023-08-31T13:46:29;27.10;80.80
4985;DHT22;2509;49.902;8.600;2023-08-31T13:49:31;26.70;83.70
4985;DHT22;2509;49.902;8.600;2023-08-31T13:52:35;26.40;84.50
4985;DHT22;2509;49.902;8.600;2023-08-31T13:55:36;26.10;85.40
4985;DHT22;2509;49.902;8.600;2023-08-31T13:58:38;25.60;87.20
4985;DHT22;2509;49.902;8.600;2023-08-31T14:01:41;25.70;86.60
4985;DHT22;2509;49.902;8.600;2023-08-31T14:04:43;26.20;86.30
4985;DHT22;2509;49.902;8.600;2023-08-31T14:07:46;25.90;86.20
4985;DHT22;2509;49.902;8.600;2023-08-31T14:10:48;25.20;87.10
4985;DHT22;2509;49.902;8.600;2023-08-31T14:13:49;25.30;88.80
4985;DHT22;2509;49.902;8.600;2023-08-31T14:16:53;25.00;89.30
4985;DHT22;2509;49.902;8.600;2023-08-31T14:20:12;24.80;90.10
4985;DHT22;2509;49.902;8.600;2023-08-31T14:23:21;25.20;91.00
4985;DHT22;2509;49.902;8.600;2023-08-31T14:26:28;25.70;89.40
4985;DHT22;2509;49.902;8.600;2023-08-31T14:29:41;26.20;87.30
4985;DHT22;2509;49.902;8.600;2023-08-31T14:32:58;25.40;89.50
4985;DHT22;2509;49.902;8.600;2023-08-31T14:36:14;25.80;89.10
4985;DHT22;2509;49.902;8.600;2023-08-31T14:39:28;25.40;88.50
4985;DHT22;2509;49.902;8.600;2023-08-31T14:42:46;25.10;89.50
4985;DHT22;2509;49.902;8.600;2023-08-31T14:45:53;25.80;88.50
4985;DHT22;2509;49.902;8.600;2023-08-31T14:49:03;25.50;88.50
4985;DHT22;2509;49.902;8.600;2023-08-31T14:52:11;24.70;89.70
4985;DHT22;2509;49.902;8.600;2023-08-31T14:55:27;24.10;92.10
4985;DHT22;2509;49.902;8.600;2023-08-31T14:58:42;24.00;91.60
4985;DHT22;2509;49.902;8.600;2023-08-31T15:01:44;23.70;92.90
4985;DHT22;2509;49.902;8.600;2023-08-31T15:04:47;23.20;94.20
4985;DHT22;2509;49.902;8.600;2023-08-31T15:07:49;23.00;94.80
4985;DHT22;2509;49.902;8.600;2023-08-31T15:11:06;22.60;96.40
4985;DHT22;2509;49.902;8.600;2023-08-31T15:14:21;22.30;97.00
4985;DHT22;2509;49.902;8.600;2023-08-31T15:17:27;22.20;97.60
4985;DHT22;2509;49.902;8.600;2023-08-31T15:20:47;22.10;98.30
4985;DHT22;2509;49.902;8.600;2023-08-31T15:24:01;22.10;98.90
4985;DHT22;2509;49.902;8.600;2023-08-31T15:27:20;22.30;98.40
4985;DHT22;2509;49.902;8.600;2023-08-31T15:30:46;22.70;97.70
4985;DHT22;2509;49.902;8.600;2023-08-31T15:33:57;22.80;97.00
4985;DHT22;2509;49.902;8.600;2023-08-31T15:37:18;22.70;97.70
4985;DHT22;2509;49.902;8.600;2023-08-31T15:40:50;22.40;98.60
4985;DHT22;2509;49.902;8.600;2023-08-31T15:43:55;22.20;99.20
4985;DHT22;2509;49.902;8.600;2023-08-31T15:46:57;22.00;99.50
4985;DHT22;2509;49.902;8.600;2023-08-31T15:49:58;21.90;99.70
4985;DHT22;2509;49.902;8.600;2023-08-31T15:53:00;21.60;99.90
4985;DHT22;2509;49.902;8.600;2023-08-31T15:56:03;21.60;99.90
4985;DHT22;2509;49.902;8.600;2023-08-31T15:59:06;21.70;99.90
4985;DHT22;2509;49.902;8.600;2023-08-31T16:02:08;21.70;99.90
4985;DHT22;2509;49.902;8.600;2023-08-31T16:05:11;21.70;99.90
4985;DHT22;2509;49.902;8.600;2023-08-31T16:08:13;21.60;99.90
4985;DHT22;2509;49.902;8.600;2023-08-31T16:11:15;21.50;99.90
4985;DHT22;2509;49.902;8.600;2023-08-31T16:14:18;21.30;99.90
4985;DHT22;2509;49.902;8.600;2023-08-31T16:17:20;21.30;99.90
4985;DHT22;2509;49.902;8.600;2023-08-31T16:20:22;21.40;99.90
4985;DHT22;2509;49.902;8.600;2023-08-31T16:23:23;21.30;99.90
4985;DHT22;2509;49.902;8.600;2023-08-31T16:26:25;21.10;99.90
4985;DHT22;2509;49.902;8.600;2023-08-31T16:29:28;20.90;99.90
4985;DHT22;2509;49.902;8.600;2023-08-31T16:32:30;21.00;99.90
4985;DHT22;2509;49.902;8.600;2023-08-31T16:35:32;20.90;99.90
4985;DHT22;2509;49.902;8.600;2023-08-31T16:38:33;20.70;99.90
4985;DHT22;2509;49.902;8.600;2023-08-31T16:41:36;20.70;99.90
4985;DHT22;2509;49.902;8.600;2023-08-31T16:44:39;20.80;99.90
4985;DHT22;2509;49.902;8.600;2023-08-31T16:47:41;20.80;99.90
4985;DHT22;2509;49.902;8.600;2023-08-31T16:50:43;20.70;99.90
4985;DHT22;2509;49.902;8.600;2023-08-31T16:53:44;20.70;99.90
4985;DHT22;2509;49.902;8.600;2023-08-31T16:56:46;20.60;99.90
4985;DHT22;2509;49.902;8.600;2023-08-31T16:59:50;20.70;99.90
4985;DHT22;2509;49.902;8.600;2023-08-31T17:02:52;20.70;99.90
4985;DHT22;2509;49.902;8.600;2023-08-31T17:05:54;20.70;99.90
4985;DHT22;2509;49.902;8.600;2023-08-31T17:08:56;20.60;99.90
4985;DHT22;2509;49.902;8.600;2023-08-31T17:11:58;20.60;99.90
4985;DHT22;2509;49.902;8.600;2023-08-31T17:15:01;20.50;99.90
4985;DHT22;2509;49.902;8.600;2023-08-31T17:18:04;20.40;99.90
4985;DHT22;2509;49.902;8.600;2023-08-31T17:21:06;20.20;99.90
4985;DHT22;2509;49.902;8.600;2023-08-31T17:24:08;20.20;99.90
4985;DHT22;2509;49.902;8.600;2023-08-31T17:27:10;20.10;99.90
4985;DHT22;2509;49.902;8.600;2023-08-31T17:30:13;20.00;99.90
4985;DHT22;2509;49.902;8.600;2023-08-31T17:33:15;20.00;99.90
4985;DHT22;2509;49.902;8.600;2023-08-31T17:36:17;19.90;99.90
4985;DHT22;2509;49.902;8.600;2023-08-31T17:39:19;19.90;99.90
4985;DHT22;2509;49.902;8.600;2023-08-31T17:42:20;19.80;99.90
4985;DHT22;2509;49.902;8.600;2023-08-31T17:45:23;19.70;99.90
4985;DHT22;2509;49.902;8.600;2023-08-31T17:48:26;19.70;99.90
4985;DHT22;2509;49.902;8.600;2023-08-31T17:51:28;19.60;99.90
4985;DHT22;2509;49.902;8.600;2023-08-31T17:54:30;19.60;99.90
4985;DHT22;2509;49.902;8.600;2023-08-31T17:57:32;19.50;99.90
4985;DHT22;2509;49.902;8.600;2023-08-31T18:00:35;19.50;99.90
4985;DHT22;2509;49.902;8.600;2023-08-31T18:03:37;19.40;99.90
4985;DHT22;2509;49.902;8.600;2023-08-31T18:06:39;19.40;99.90
4985;DHT22;2509;49.902;8.600;2023-08-31T18:09:41;19.30;99.90
4985;DHT22;2509;49.902;8.600;2023-08-31T18:12:44;19.30;99.90
4985;DHT22;2509;49.902;8.600;2023-08-31T18:15:49;19.30;99.90
4985;DHT22;2509;49.902;8.600;2023-08-31T18:18:51;19.20;99.90
4985;DHT22;2509;49.902;8.600;2023-08-31T18:21:53;19.20;99.90
4985;DHT22;2509;49.902;8.600;2023-08-31T18:24:54;19.20;99.90
4985;DHT22;2509;49.902;8.600;2023-08-31T18:27:56;19.20;99.90
4985;DHT22;2509;49.902;8.600;2023-08-31T18:30:59;19.10;99.90
4985;DHT22;2509;49.902;8.600;2023-08-31T18:34:01;19.10;99.90
4985;DHT22;2509;49.902;8.600;2023-08-31T18:37:03;19.00;99.90
4985;DHT22;2509;49.902;8.600;2023-08-31T18:40:06;19.00;99.90
4985;DHT22;2509;49.902;8.600;2023-08-31T18:43:10;19.00;99.90
4985;DHT22;2509;49.902;8.600;2023-08-31T18:46:13;18.90;99.90
4985;DHT22;2509;49.902;8.600;2023-08-31T18:49:15;18.80;99.90
4985;DHT22;2509;49.902;8.600;2023-08-31T18:52:17;18.60;99.90
4985;DHT22;2509;49.902;8.600;2023-08-31T18:55:19;18.60;99.90
4985;DHT22;2509;49.902;8.600;2023-08-31T18:58:23;18.60;99.90
4985;DHT22;2509;49.902;8.600;2023-08-31T19:01:26;18.50;99.90
4985;DHT22;2509;49.902;8.600;2023-08-31T19:04:28;18.50;99.90
4985;DHT22;2509;49.902;8.600;2023-08-31T19:07:29;18.40;99.90
4985;DHT22;2509;49.902;8.600;2023-08-31T19:10:31;18.20;99.90
4985;DHT22;2509;49.902;8.600;2023-08-31T19:13:33;18.10;99.90
4985;DHT22;2509;49.902;8.600;2023-08-31T19:16:36;18.10;99.90
4985;DHT22;2509;49.902;8.600;2023-08-31T19:19:38;18.10;99.90
4985;DHT22;2509;49.902;8.600;2023-08-31T19:22:44;18.00;99.90
4985;DHT22;2509;49.902;8.600;2023-08-31T19:25:46;17.90;99.90
4985;DHT22;2509;49.902;8.600;2023-08-31T19:28:47;17.80;99.90
4985;DHT22;2509;49.902;8.600;2023-08-31T19:31:50;17.70;99.90
4985;DHT22;2509;49.902;8.600;2023-08-31T19:34:54;17.60;99.90
4985;DHT22;2509;49.902;8.600;2023-08-31T19:37:55;17.40;99.90
4985;DHT22;2509;49.902;8.600;2023-08-31T19:40:57;17.30;99.90
4985;DHT22;2509;49.902;8.600;2023-08-31T19:43:59;17.30;99.90
4985;DHT22;2509;49.902;8.600;2023-08-31T19:47:02;17.20;99.90
4985;DHT22;2509;49.902;8.600;2023-08-31T19:50:05;17.10;99.90
4985;DHT22;2509;49.902;8.600;2023-08-31T19:53:07;17.10;99.90
4985;DHT22;2509;49.902;8.600;2023-08-31T19:56:09;17.00;99.90
4985;DHT22;2509;49.902;8.600;2023-08-31T19:59:13;17.00;99.90